sensor_id;sensor_type;location;lat;lon;timestamp;P1;durP1;ratioP1;P2;durP2;ratioP2
16199;SDS011;8207;52.494;4.654;2022-12-17T00:01:24;50.27;;;24.10;;
16199;SDS011;8207;52.494;4.654;2022-12-17T00:04:08;48.77;;;25.57;;
16199;SDS011;8207;52.494;4.654;2022-12-17T00:06:52;43.87;;;25.90;;
16199;SDS011;8207;52.494;4.654;2022-12-17T00:09:37;42.37;;;24.33;;
16199;SDS011;8207;52.494;4.654;2022-12-17T00:12:21;47.77;;;24.90;;
16199;SDS011;8207;52.494;4.654;2022-12-17T00:15:15;45.77;;;26.67;;
16199;SDS011;8207;52.494;4.654;2022-12-17T00:18:01;43.83;;;25.87;;
16199;SDS011;8207;52.494;4.654;2022-12-17T00:20:50;44.07;;;27.23;;
16199;SDS011;8207;52.494;4.654;2022-12-17T00:23:35;47.80;;;27.50;;
16199;SDS011;8207;52.494;4.654;2022-12-17T00:26:19;45.40;;;25.77;;
16199;SDS011;8207;52.494;4.654;2022-12-17T00:29:03;45.43;;;25.33;;
16199;SDS011;8207;52.494;4.654;2022-12-17T00:31:49;53.67;;;26.37;;
16199;SDS011;8207;52.494;4.654;2022-12-17T00:34:33;55.27;;;26.27;;
16199;SDS011;8207;52.494;4.654;2022-12-17T00:37:17;46.57;;;25.80;;
16199;SDS011;8207;52.494;4.654;2022-12-17T00:40:02;49.37;;;27.60;;
16199;SDS011;8207;52.494;4.654;2022-12-17T00:42:43;60.00;;;26.70;;
16199;SDS011;8207;52.494;4.654;2022-12-17T00:45:27;44.17;;;24.67;;
16199;SDS011;8207;52.494;4.654;2022-12-17T00:48:13;44.77;;;26.03;;
16199;SDS011;8207;52.494;4.654;2022-12-17T00:50:57;45.33;;;26.33;;
16199;SDS011;8207;52.494;4.654;2022-12-17T00:53:41;50.47;;;26.23;;
16199;SDS011;8207;52.494;4.654;2022-12-17T00:56:26;42.67;;;25.83;;
16199;SDS011;8207;52.494;4.654;2022-12-17T00:59:10;51.03;;;27.83;;
16199;SDS011;8207;52.494;4.654;2022-12-17T01:01:54;46.13;;;26.73;;
16199;SDS011;8207;52.494;4.654;2022-12-17T01:04:39;50.97;;;28.40;;
16199;SDS011;8207;52.494;4.654;2022-12-17T01:07:24;55.53;;;29.70;;
16199;SDS011;8207;52.494;4.654;2022-12-17T01:10:08;55.00;;;28.60;;
16199;SDS011;8207;52.494;4.654;2022-12-17T01:12:52;48.07;;;27.57;;
16199;SDS011;8207;52.494;4.654;2022-12-17T01:15:37;50.50;;;27.93;;
16199;SDS011;8207;52.494;4.654;2022-12-17T01:18:21;48.97;;;27.17;;
16199;SDS011;8207;52.494;4.654;2022-12-17T01:21:07;56.37;;;28.40;;
16199;SDS011;8207;52.494;4.654;2022-12-17T01:23:51;51.07;;;27.60;;
16199;SDS011;8207;52.494;4.654;2022-12-17T01:26:35;53.47;;;27.53;;
16199;SDS011;8207;52.494;4.654;2022-12-17T01:29:19;55.57;;;28.70;;
16199;SDS011;8207;52.494;4.654;2022-12-17T01:32:04;65.80;;;27.10;;
16199;SDS011;8207;52.494;4.654;2022-12-17T01:34:48;80.50;;;27.90;;
16199;SDS011;8207;52.494;4.654;2022-12-17T01:37:34;62.83;;;27.73;;
16199;SDS011;8207;52.494;4.654;2022-12-17T01:40:18;58.07;;;27.53;;
16199;SDS011;8207;52.494;4.654;2022-12-17T01:43:05;43.47;;;25.43;;
16199;SDS011;8207;52.494;4.654;2022-12-17T01:45:52;59.37;;;28.53;;
16199;SDS011;8207;52.494;4.654;2022-12-17T01:48:37;51.97;;;28.53;;
16199;SDS011;8207;52.494;4.654;2022-12-17T01:51:24;61.83;;;29.37;;
16199;SDS011;8207;52.494;4.654;2022-12-17T01:54:12;60.33;;;29.00;;
16199;SDS011;8207;52.494;4.654;2022-12-17T01:56:57;52.33;;;29.60;;
16199;SDS011;8207;52.494;4.654;2022-12-17T01:59:43;55.97;;;28.33;;
16199;SDS011;8207;52.494;4.654;2022-12-17T02:02:32;57.07;;;28.80;;
16199;SDS011;8207;52.494;4.654;2022-12-17T02:05:17;56.47;;;27.53;;
16199;SDS011;8207;52.494;4.654;2022-12-17T02:08:11;55.13;;;28.47;;
16199;SDS011;8207;52.494;4.654;2022-12-17T02:11:06;59.43;;;28.17;;
16199;SDS011;8207;52.494;4.654;2022-12-17T02:14:02;57.87;;;28.73;;
16199;SDS011;8207;52.494;4.654;2022-12-17T02:16:52;55.50;;;27.67;;
16199;SDS011;8207;52.494;4.654;2022-12-17T02:19:43;70.87;;;30.30;;
16199;SDS011;8207;52.494;4.654;2022-12-17T02:22:51;61.30;;;28.13;;
16199;SDS011;8207;52.494;4.654;2022-12-17T02:25:45;54.77;;;27.37;;
16199;SDS011;8207;52.494;4.654;2022-12-17T02:28:35;51.73;;;27.93;;
16199;SDS011;8207;52.494;4.654;2022-12-17T02:31:22;61.10;;;30.97;;
16199;SDS011;8207;52.494;4.654;2022-12-17T02:34:08;56.53;;;28.00;;
16199;SDS011;8207;52.494;4.654;2022-12-17T02:36:52;57.70;;;29.33;;
16199;SDS011;8207;52.494;4.654;2022-12-17T02:39:36;55.37;;;29.27;;
16199;SDS011;8207;52.494;4.654;2022-12-17T02:42:21;59.70;;;29.13;;
16199;SDS011;8207;52.494;4.654;2022-12-17T02:45:08;66.97;;;31.80;;
16199;SDS011;8207;52.494;4.654;2022-12-17T02:47:53;64.03;;;30.37;;
16199;SDS011;8207;52.494;4.654;2022-12-17T02:50:38;65.53;;;32.00;;
16199;SDS011;8207;52.494;4.654;2022-12-17T02:53:19;64.57;;;31.33;;
16199;SDS011;8207;52.494;4.654;2022-12-17T02:56:04;78.27;;;33.43;;
16199;SDS011;8207;52.494;4.654;2022-12-17T02:58:48;67.03;;;31.43;;
16199;SDS011;8207;52.494;4.654;2022-12-17T03:01:34;60.87;;;31.43;;
16199;SDS011;8207;52.494;4.654;2022-12-17T03:04:18;73.17;;;34.17;;
16199;SDS011;8207;52.494;4.654;2022-12-17T03:07:03;86.17;;;33.40;;
16199;SDS011;8207;52.494;4.654;2022-12-17T03:09:47;73.83;;;31.53;;
16199;SDS011;8207;52.494;4.654;2022-12-17T03:12:31;64.57;;;32.40;;
16199;SDS011;8207;52.494;4.654;2022-12-17T03:15:16;66.40;;;33.43;;
16199;SDS011;8207;52.494;4.654;2022-12-17T03:18:01;88.40;;;35.20;;
16199;SDS011;8207;52.494;4.654;2022-12-17T03:20:46;70.80;;;35.03;;
16199;SDS011;8207;52.494;4.654;2022-12-17T03:23:34;82.43;;;33.73;;
16199;SDS011;8207;52.494;4.654;2022-12-17T03:26:18;73.27;;;35.17;;
16199;SDS011;8207;52.494;4.654;2022-12-17T03:29:02;78.83;;;35.07;;
16199;SDS011;8207;52.494;4.654;2022-12-17T03:31:47;78.90;;;34.33;;
16199;SDS011;8207;52.494;4.654;2022-12-17T03:34:32;77.10;;;35.93;;
16199;SDS011;8207;52.494;4.654;2022-12-17T03:37:17;80.27;;;35.77;;
16199;SDS011;8207;52.494;4.654;2022-12-17T03:40:01;74.20;;;35.53;;
16199;SDS011;8207;52.494;4.654;2022-12-17T03:42:46;76.33;;;35.37;;
16199;SDS011;8207;52.494;4.654;2022-12-17T03:45:30;77.33;;;36.60;;
16199;SDS011;8207;52.494;4.654;2022-12-17T03:48:14;85.90;;;37.83;;
16199;SDS011;8207;52.494;4.654;2022-12-17T03:51:00;92.37;;;38.90;;
16199;SDS011;8207;52.494;4.654;2022-12-17T03:53:45;80.67;;;38.23;;
16199;SDS011;8207;52.494;4.654;2022-12-17T03:56:30;82.63;;;37.40;;
16199;SDS011;8207;52.494;4.654;2022-12-17T03:59:14;83.43;;;38.37;;
16199;SDS011;8207;52.494;4.654;2022-12-17T04:01:59;82.30;;;39.10;;
16199;SDS011;8207;52.494;4.654;2022-12-17T04:04:43;85.57;;;38.73;;
16199;SDS011;8207;52.494;4.654;2022-12-17T04:07:29;91.50;;;39.87;;
16199;SDS011;8207;52.494;4.654;2022-12-17T04:10:13;98.07;;;41.03;;
16199;SDS011;8207;52.494;4.654;2022-12-17T04:12:58;84.37;;;41.17;;
16199;SDS011;8207;52.494;4.654;2022-12-17T04:15:54;81.43;;;39.60;;
16199;SDS011;8207;52.494;4.654;2022-12-17T04:18:38;90.37;;;40.23;;
16199;SDS011;8207;52.494;4.654;2022-12-17T04:21:22;97.53;;;41.67;;
16199;SDS011;8207;52.494;4.654;2022-12-17T04:24:08;90.93;;;39.33;;
16199;SDS011;8207;52.494;4.654;2022-12-17T04:26:52;102.37;;;41.87;;
16199;SDS011;8207;52.494;4.654;2022-12-17T04:29:45;105.47;;;42.77;;
16199;SDS011;8207;52.494;4.654;2022-12-17T04:32:29;105.13;;;44.70;;
16199;SDS011;8207;52.494;4.654;2022-12-17T04:35:13;107.73;;;43.73;;
16199;SDS011;8207;52.494;4.654;2022-12-17T04:37:57;96.57;;;42.87;;
16199;SDS011;8207;52.494;4.654;2022-12-17T04:40:43;98.80;;;43.90;;
16199;SDS011;8207;52.494;4.654;2022-12-17T04:43:27;100.70;;;43.43;;
16199;SDS011;8207;52.494;4.654;2022-12-17T04:46:10;105.63;;;43.40;;
16199;SDS011;8207;52.494;4.654;2022-12-17T04:48:55;121.80;;;45.80;;
16199;SDS011;8207;52.494;4.654;2022-12-17T04:51:39;97.23;;;41.83;;
16199;SDS011;8207;52.494;4.654;2022-12-17T04:54:23;106.13;;;45.83;;
16199;SDS011;8207;52.494;4.654;2022-12-17T04:57:09;109.73;;;46.63;;
16199;SDS011;8207;52.494;4.654;2022-12-17T04:59:53;101.00;;;43.00;;
16199;SDS011;8207;52.494;4.654;2022-12-17T05:02:37;111.60;;;47.37;;
16199;SDS011;8207;52.494;4.654;2022-12-17T05:05:22;104.60;;;45.90;;
16199;SDS011;8207;52.494;4.654;2022-12-17T05:08:06;105.10;;;47.57;;
16199;SDS011;8207;52.494;4.654;2022-12-17T05:10:50;110.50;;;47.23;;
16199;SDS011;8207;52.494;4.654;2022-12-17T05:13:36;110.43;;;47.87;;
16199;SDS011;8207;52.494;4.654;2022-12-17T05:16:20;110.43;;;48.17;;
16199;SDS011;8207;52.494;4.654;2022-12-17T05:19:04;111.33;;;47.30;;
16199;SDS011;8207;52.494;4.654;2022-12-17T05:21:48;111.73;;;44.87;;
16199;SDS011;8207;52.494;4.654;2022-12-17T05:24:32;104.80;;;45.40;;
16199;SDS011;8207;52.494;4.654;2022-12-17T05:27:16;116.70;;;46.27;;
16199;SDS011;8207;52.494;4.654;2022-12-17T05:30:02;98.87;;;44.83;;
16199;SDS011;8207;52.494;4.654;2022-12-17T05:32:47;116.10;;;48.60;;
16199;SDS011;8207;52.494;4.654;2022-12-17T05:35:40;107.17;;;45.60;;
16199;SDS011;8207;52.494;4.654;2022-12-17T05:38:24;111.33;;;45.87;;
16199;SDS011;8207;52.494;4.654;2022-12-17T05:41:08;104.83;;;46.90;;
16199;SDS011;8207;52.494;4.654;2022-12-17T05:43:52;98.77;;;44.40;;
16199;SDS011;8207;52.494;4.654;2022-12-17T05:46:38;106.90;;;45.23;;
16199;SDS011;8207;52.494;4.654;2022-12-17T05:49:28;113.53;;;46.57;;
16199;SDS011;8207;52.494;4.654;2022-12-17T05:52:12;107.23;;;44.70;;
16199;SDS011;8207;52.494;4.654;2022-12-17T05:54:56;114.17;;;46.13;;
16199;SDS011;8207;52.494;4.654;2022-12-17T05:57:40;98.53;;;42.47;;
16199;SDS011;8207;52.494;4.654;2022-12-17T06:00:25;112.17;;;43.77;;
16199;SDS011;8207;52.494;4.654;2022-12-17T06:03:10;107.20;;;44.20;;
16199;SDS011;8207;52.494;4.654;2022-12-17T06:05:55;112.73;;;43.80;;
16199;SDS011;8207;52.494;4.654;2022-12-17T06:08:40;106.90;;;45.00;;
16199;SDS011;8207;52.494;4.654;2022-12-17T06:11:25;123.17;;;46.20;;
16199;SDS011;8207;52.494;4.654;2022-12-17T06:14:10;107.63;;;44.03;;
16199;SDS011;8207;52.494;4.654;2022-12-17T06:16:54;106.87;;;43.37;;
16199;SDS011;8207;52.494;4.654;2022-12-17T06:19:40;112.87;;;44.13;;
16199;SDS011;8207;52.494;4.654;2022-12-17T06:22:24;113.77;;;45.17;;
16199;SDS011;8207;52.494;4.654;2022-12-17T06:25:08;124.93;;;46.17;;
16199;SDS011;8207;52.494;4.654;2022-12-17T06:27:56;107.33;;;44.17;;
16199;SDS011;8207;52.494;4.654;2022-12-17T06:30:41;116.17;;;43.77;;
16199;SDS011;8207;52.494;4.654;2022-12-17T06:33:25;110.67;;;43.47;;
16199;SDS011;8207;52.494;4.654;2022-12-17T06:36:11;114.13;;;46.57;;
16199;SDS011;8207;52.494;4.654;2022-12-17T06:38:55;101.77;;;42.80;;
16199;SDS011;8207;52.494;4.654;2022-12-17T06:41:41;110.80;;;46.20;;
16199;SDS011;8207;52.494;4.654;2022-12-17T06:44:26;116.50;;;44.07;;
16199;SDS011;8207;52.494;4.654;2022-12-17T06:47:10;105.83;;;43.13;;
16199;SDS011;8207;52.494;4.654;2022-12-17T06:49:54;113.70;;;44.57;;
16199;SDS011;8207;52.494;4.654;2022-12-17T06:52:40;108.73;;;43.50;;
16199;SDS011;8207;52.494;4.654;2022-12-17T06:55:24;111.27;;;43.30;;
16199;SDS011;8207;52.494;4.654;2022-12-17T06:58:08;110.83;;;45.63;;
16199;SDS011;8207;52.494;4.654;2022-12-17T07:00:52;109.60;;;43.60;;
16199;SDS011;8207;52.494;4.654;2022-12-17T07:03:36;104.57;;;42.47;;
16199;SDS011;8207;52.494;4.654;2022-12-17T07:06:20;107.53;;;44.43;;
16199;SDS011;8207;52.494;4.654;2022-12-17T07:09:06;113.97;;;44.40;;
16199;SDS011;8207;52.494;4.654;2022-12-17T07:11:50;106.77;;;44.13;;
16199;SDS011;8207;52.494;4.654;2022-12-17T07:14:34;102.63;;;42.93;;
16199;SDS011;8207;52.494;4.654;2022-12-17T07:17:18;121.37;;;44.97;;
16199;SDS011;8207;52.494;4.654;2022-12-17T07:20:03;111.83;;;45.30;;
16199;SDS011;8207;52.494;4.654;2022-12-17T07:22:48;122.33;;;45.53;;
16199;SDS011;8207;52.494;4.654;2022-12-17T07:25:39;115.53;;;44.03;;
16199;SDS011;8207;52.494;4.654;2022-12-17T07:28:24;114.20;;;45.50;;
16199;SDS011;8207;52.494;4.654;2022-12-17T07:31:08;112.90;;;43.57;;
16199;SDS011;8207;52.494;4.654;2022-12-17T07:33:52;112.60;;;43.60;;
16199;SDS011;8207;52.494;4.654;2022-12-17T07:36:42;106.37;;;44.07;;
16199;SDS011;8207;52.494;4.654;2022-12-17T07:39:26;114.53;;;45.93;;
16199;SDS011;8207;52.494;4.654;2022-12-17T07:42:12;114.67;;;45.50;;
16199;SDS011;8207;52.494;4.654;2022-12-17T07:44:56;113.40;;;41.90;;
16199;SDS011;8207;52.494;4.654;2022-12-17T07:47:40;111.50;;;43.43;;
16199;SDS011;8207;52.494;4.654;2022-12-17T07:50:24;113.67;;;44.50;;
16199;SDS011;8207;52.494;4.654;2022-12-17T07:53:09;119.60;;;44.63;;
16199;SDS011;8207;52.494;4.654;2022-12-17T07:55:53;121.87;;;44.80;;
16199;SDS011;8207;52.494;4.654;2022-12-17T07:58:38;106.57;;;43.97;;
16199;SDS011;8207;52.494;4.654;2022-12-17T08:01:22;123.40;;;46.07;;
16199;SDS011;8207;52.494;4.654;2022-12-17T08:04:07;113.73;;;44.43;;
16199;SDS011;8207;52.494;4.654;2022-12-17T08:07:05;113.17;;;44.60;;
16199;SDS011;8207;52.494;4.654;2022-12-17T08:09:50;120.93;;;46.10;;
16199;SDS011;8207;52.494;4.654;2022-12-17T08:12:34;119.33;;;46.63;;
16199;SDS011;8207;52.494;4.654;2022-12-17T08:15:20;116.77;;;46.20;;
16199;SDS011;8207;52.494;4.654;2022-12-17T08:18:05;118.90;;;47.00;;
16199;SDS011;8207;52.494;4.654;2022-12-17T08:20:49;120.03;;;46.03;;
16199;SDS011;8207;52.494;4.654;2022-12-17T08:23:33;127.03;;;48.37;;
16199;SDS011;8207;52.494;4.654;2022-12-17T08:26:17;128.37;;;47.80;;
16199;SDS011;8207;52.494;4.654;2022-12-17T08:29:01;132.00;;;49.70;;
16199;SDS011;8207;52.494;4.654;2022-12-17T08:31:47;130.73;;;47.17;;
16199;SDS011;8207;52.494;4.654;2022-12-17T08:34:45;130.37;;;47.57;;
16199;SDS011;8207;52.494;4.654;2022-12-17T08:37:30;131.63;;;49.27;;
16199;SDS011;8207;52.494;4.654;2022-12-17T08:40:14;143.43;;;49.77;;
16199;SDS011;8207;52.494;4.654;2022-12-17T08:42:58;135.30;;;49.53;;
16199;SDS011;8207;52.494;4.654;2022-12-17T08:45:44;145.77;;;52.53;;
16199;SDS011;8207;52.494;4.654;2022-12-17T08:48:31;132.50;;;51.53;;
16199;SDS011;8207;52.494;4.654;2022-12-17T08:51:15;142.10;;;52.83;;
16199;SDS011;8207;52.494;4.654;2022-12-17T08:54:05;140.90;;;49.60;;
16199;SDS011;8207;52.494;4.654;2022-12-17T08:56:49;139.00;;;49.70;;
16199;SDS011;8207;52.494;4.654;2022-12-17T08:59:34;146.33;;;53.97;;
16199;SDS011;8207;52.494;4.654;2022-12-17T09:02:18;153.57;;;54.60;;
16199;SDS011;8207;52.494;4.654;2022-12-17T09:05:04;145.63;;;53.13;;
16199;SDS011;8207;52.494;4.654;2022-12-17T09:07:48;135.03;;;52.27;;
16199;SDS011;8207;52.494;4.654;2022-12-17T09:10:41;147.40;;;53.90;;
16199;SDS011;8207;52.494;4.654;2022-12-17T09:13:25;141.13;;;54.37;;
16199;SDS011;8207;52.494;4.654;2022-12-17T09:16:24;144.73;;;53.30;;
16199;SDS011;8207;52.494;4.654;2022-12-17T09:19:05;148.97;;;54.93;;
16199;SDS011;8207;52.494;4.654;2022-12-17T09:21:50;149.63;;;54.73;;
16199;SDS011;8207;52.494;4.654;2022-12-17T09:24:35;158.70;;;55.63;;
16199;SDS011;8207;52.494;4.654;2022-12-17T09:27:19;141.67;;;55.20;;
16199;SDS011;8207;52.494;4.654;2022-12-17T09:30:04;142.43;;;53.10;;
16199;SDS011;8207;52.494;4.654;2022-12-17T09:32:49;145.40;;;54.93;;
16199;SDS011;8207;52.494;4.654;2022-12-17T09:35:47;133.10;;;51.47;;
16199;SDS011;8207;52.494;4.654;2022-12-17T09:38:33;139.47;;;52.53;;
16199;SDS011;8207;52.494;4.654;2022-12-17T09:41:19;138.50;;;53.53;;
16199;SDS011;8207;52.494;4.654;2022-12-17T09:44:13;149.27;;;53.77;;
16199;SDS011;8207;52.494;4.654;2022-12-17T09:47:05;128.13;;;50.93;;
16199;SDS011;8207;52.494;4.654;2022-12-17T09:49:57;141.30;;;55.50;;
16199;SDS011;8207;52.494;4.654;2022-12-17T09:52:54;128.97;;;52.90;;
16199;SDS011;8207;52.494;4.654;2022-12-17T09:55:42;119.03;;;51.20;;
16199;SDS011;8207;52.494;4.654;2022-12-17T09:58:30;130.00;;;52.70;;
16199;SDS011;8207;52.494;4.654;2022-12-17T10:01:19;122.93;;;51.80;;
16199;SDS011;8207;52.494;4.654;2022-12-17T10:04:09;121.93;;;50.23;;
16199;SDS011;8207;52.494;4.654;2022-12-17T10:06:57;119.07;;;50.13;;
16199;SDS011;8207;52.494;4.654;2022-12-17T10:09:41;103.40;;;47.47;;
16199;SDS011;8207;52.494;4.654;2022-12-17T10:12:28;116.97;;;47.53;;
16199;SDS011;8207;52.494;4.654;2022-12-17T10:15:13;110.50;;;48.33;;
16199;SDS011;8207;52.494;4.654;2022-12-17T10:17:58;109.97;;;46.47;;
16199;SDS011;8207;52.494;4.654;2022-12-17T10:20:50;97.90;;;48.27;;
16199;SDS011;8207;52.494;4.654;2022-12-17T10:23:37;108.77;;;47.13;;
16199;SDS011;8207;52.494;4.654;2022-12-17T10:26:22;89.97;;;43.43;;
16199;SDS011;8207;52.494;4.654;2022-12-17T10:29:12;88.30;;;42.33;;
16199;SDS011;8207;52.494;4.654;2022-12-17T10:31:58;85.33;;;42.50;;
16199;SDS011;8207;52.494;4.654;2022-12-17T10:34:50;89.23;;;44.03;;
16199;SDS011;8207;52.494;4.654;2022-12-17T10:37:35;95.47;;;44.53;;
16199;SDS011;8207;52.494;4.654;2022-12-17T10:40:22;77.77;;;41.23;;
16199;SDS011;8207;52.494;4.654;2022-12-17T10:43:26;97.43;;;45.87;;
16199;SDS011;8207;52.494;4.654;2022-12-17T10:46:20;82.03;;;41.47;;
16199;SDS011;8207;52.494;4.654;2022-12-17T10:49:18;88.30;;;41.93;;
16199;SDS011;8207;52.494;4.654;2022-12-17T10:52:04;85.73;;;43.73;;
16199;SDS011;8207;52.494;4.654;2022-12-17T10:55:17;82.73;;;43.13;;
16199;SDS011;8207;52.494;4.654;2022-12-17T10:58:08;80.43;;;43.97;;
16199;SDS011;8207;52.494;4.654;2022-12-17T11:00:57;79.63;;;43.10;;
16199;SDS011;8207;52.494;4.654;2022-12-17T11:03:47;70.00;;;40.73;;
16199;SDS011;8207;52.494;4.654;2022-12-17T11:06:33;72.63;;;43.87;;
16199;SDS011;8207;52.494;4.654;2022-12-17T11:09:25;72.90;;;40.93;;
16199;SDS011;8207;52.494;4.654;2022-12-17T11:12:21;77.23;;;42.00;;
16199;SDS011;8207;52.494;4.654;2022-12-17T11:15:14;74.10;;;41.33;;
16199;SDS011;8207;52.494;4.654;2022-12-17T11:18:02;73.20;;;41.33;;
16199;SDS011;8207;52.494;4.654;2022-12-17T11:20:57;72.33;;;40.27;;
16199;SDS011;8207;52.494;4.654;2022-12-17T11:23:47;69.33;;;37.77;;
16199;SDS011;8207;52.494;4.654;2022-12-17T11:26:34;60.07;;;37.63;;
16199;SDS011;8207;52.494;4.654;2022-12-17T11:29:20;63.87;;;37.43;;
16199;SDS011;8207;52.494;4.654;2022-12-17T11:32:13;63.33;;;36.47;;
16199;SDS011;8207;52.494;4.654;2022-12-17T11:35:22;60.90;;;37.10;;
16199;SDS011;8207;52.494;4.654;2022-12-17T11:38:28;55.57;;;35.67;;
16199;SDS011;8207;52.494;4.654;2022-12-17T11:41:17;60.77;;;36.47;;
16199;SDS011;8207;52.494;4.654;2022-12-17T11:44:08;58.30;;;35.50;;
16199;SDS011;8207;52.494;4.654;2022-12-17T11:47:10;56.30;;;37.43;;
16199;SDS011;8207;52.494;4.654;2022-12-17T11:50:04;57.20;;;37.47;;
16199;SDS011;8207;52.494;4.654;2022-12-17T11:52:56;56.20;;;36.10;;
16199;SDS011;8207;52.494;4.654;2022-12-17T11:55:47;53.90;;;34.33;;
16199;SDS011;8207;52.494;4.654;2022-12-17T11:58:48;51.33;;;34.10;;
16199;SDS011;8207;52.494;4.654;2022-12-17T12:01:36;54.17;;;34.27;;
16199;SDS011;8207;52.494;4.654;2022-12-17T12:04:30;51.17;;;33.67;;
16199;SDS011;8207;52.494;4.654;2022-12-17T12:07:23;48.73;;;32.73;;
16199;SDS011;8207;52.494;4.654;2022-12-17T12:10:27;52.47;;;34.27;;
16199;SDS011;8207;52.494;4.654;2022-12-17T12:13:20;49.43;;;34.13;;
16199;SDS011;8207;52.494;4.654;2022-12-17T12:16:10;55.77;;;35.33;;
16199;SDS011;8207;52.494;4.654;2022-12-17T12:19:04;50.83;;;33.73;;
16199;SDS011;8207;52.494;4.654;2022-12-17T12:21:57;47.03;;;33.87;;
16199;SDS011;8207;52.494;4.654;2022-12-17T12:24:55;50.43;;;32.60;;
16199;SDS011;8207;52.494;4.654;2022-12-17T12:27:52;49.97;;;30.70;;
16199;SDS011;8207;52.494;4.654;2022-12-17T12:30:44;48.20;;;31.70;;
16199;SDS011;8207;52.494;4.654;2022-12-17T12:33:37;45.90;;;32.73;;
16199;SDS011;8207;52.494;4.654;2022-12-17T12:36:46;49.07;;;31.63;;
16199;SDS011;8207;52.494;4.654;2022-12-17T12:39:33;47.57;;;30.93;;
16199;SDS011;8207;52.494;4.654;2022-12-17T12:42:23;48.23;;;33.10;;
16199;SDS011;8207;52.494;4.654;2022-12-17T12:45:20;48.00;;;32.13;;
16199;SDS011;8207;52.494;4.654;2022-12-17T12:48:22;42.43;;;30.53;;
16199;SDS011;8207;52.494;4.654;2022-12-17T12:51:17;50.93;;;32.80;;
16199;SDS011;8207;52.494;4.654;2022-12-17T12:54:22;52.37;;;33.87;;
16199;SDS011;8207;52.494;4.654;2022-12-17T13:03:29;44.20;;;30.50;;
16199;SDS011;8207;52.494;4.654;2022-12-17T13:09:17;49.83;;;31.27;;
16199;SDS011;8207;52.494;4.654;2022-12-17T13:11:47;45.87;;;31.67;;
16199;SDS011;8207;52.494;4.654;2022-12-17T13:14:18;41.87;;;29.67;;
16199;SDS011;8207;52.494;4.654;2022-12-17T13:16:50;43.23;;;30.67;;
16199;SDS011;8207;52.494;4.654;2022-12-17T13:19:31;43.13;;;29.77;;
16199;SDS011;8207;52.494;4.654;2022-12-17T13:25:08;46.57;;;30.80;;
16199;SDS011;8207;52.494;4.654;2022-12-17T13:27:40;44.83;;;30.50;;
16199;SDS011;8207;52.494;4.654;2022-12-17T13:30:17;44.80;;;31.30;;
16199;SDS011;8207;52.494;4.654;2022-12-17T13:32:58;46.47;;;31.03;;
16199;SDS011;8207;52.494;4.654;2022-12-17T13:35:39;55.53;;;33.43;;
16199;SDS011;8207;52.494;4.654;2022-12-17T13:38:14;50.37;;;33.10;;
16199;SDS011;8207;52.494;4.654;2022-12-17T13:40:47;52.10;;;33.80;;
16199;SDS011;8207;52.494;4.654;2022-12-17T13:43:30;55.77;;;34.00;;
16199;SDS011;8207;52.494;4.654;2022-12-17T13:45:58;50.90;;;34.17;;
16199;SDS011;8207;52.494;4.654;2022-12-17T13:48:26;49.87;;;35.47;;
16199;SDS011;8207;52.494;4.654;2022-12-17T13:50:57;52.77;;;34.73;;
16199;SDS011;8207;52.494;4.654;2022-12-17T13:53:25;50.13;;;33.53;;
16199;SDS011;8207;52.494;4.654;2022-12-17T13:55:55;50.33;;;33.00;;
16199;SDS011;8207;52.494;4.654;2022-12-17T13:58:23;50.13;;;34.67;;
16199;SDS011;8207;52.494;4.654;2022-12-17T14:01:02;55.23;;;34.57;;
16199;SDS011;8207;52.494;4.654;2022-12-17T14:03:30;49.90;;;34.30;;
16199;SDS011;8207;52.494;4.654;2022-12-17T14:05:59;52.80;;;34.63;;
16199;SDS011;8207;52.494;4.654;2022-12-17T14:08:27;52.03;;;36.23;;
16199;SDS011;8207;52.494;4.654;2022-12-17T14:10:56;47.80;;;33.67;;
16199;SDS011;8207;52.494;4.654;2022-12-17T14:13:47;54.20;;;34.53;;
16199;SDS011;8207;52.494;4.654;2022-12-17T14:16:14;51.33;;;35.33;;
16199;SDS011;8207;52.494;4.654;2022-12-17T14:18:42;55.93;;;37.80;;
16199;SDS011;8207;52.494;4.654;2022-12-17T14:21:14;57.27;;;37.00;;
16199;SDS011;8207;52.494;4.654;2022-12-17T14:23:41;49.87;;;33.90;;
16199;SDS011;8207;52.494;4.654;2022-12-17T14:26:09;55.17;;;36.33;;
16199;SDS011;8207;52.494;4.654;2022-12-17T14:28:44;56.57;;;37.47;;
16199;SDS011;8207;52.494;4.654;2022-12-17T14:31:17;53.27;;;36.30;;
16199;SDS011;8207;52.494;4.654;2022-12-17T14:33:46;52.97;;;34.93;;
16199;SDS011;8207;52.494;4.654;2022-12-17T14:36:26;60.93;;;37.47;;
16199;SDS011;8207;52.494;4.654;2022-12-17T14:38:55;58.37;;;37.30;;
16199;SDS011;8207;52.494;4.654;2022-12-17T14:41:24;58.77;;;38.90;;
16199;SDS011;8207;52.494;4.654;2022-12-17T14:44:12;57.03;;;38.63;;
16199;SDS011;8207;52.494;4.654;2022-12-17T14:46:44;55.37;;;36.33;;
16199;SDS011;8207;52.494;4.654;2022-12-17T14:49:14;58.33;;;37.47;;
16199;SDS011;8207;52.494;4.654;2022-12-17T14:51:45;56.83;;;38.37;;
16199;SDS011;8207;52.494;4.654;2022-12-17T14:54:19;54.80;;;37.93;;
16199;SDS011;8207;52.494;4.654;2022-12-17T14:56:53;62.80;;;40.20;;
16199;SDS011;8207;52.494;4.654;2022-12-17T14:59:22;65.73;;;41.27;;
16199;SDS011;8207;52.494;4.654;2022-12-17T15:01:51;60.87;;;40.10;;
16199;SDS011;8207;52.494;4.654;2022-12-17T15:04:19;61.37;;;41.13;;
16199;SDS011;8207;52.494;4.654;2022-12-17T15:06:48;71.33;;;42.83;;
16199;SDS011;8207;52.494;4.654;2022-12-17T15:09:18;68.20;;;42.63;;
16199;SDS011;8207;52.494;4.654;2022-12-17T15:11:45;58.33;;;40.07;;
16199;SDS011;8207;52.494;4.654;2022-12-17T15:14:11;63.63;;;40.73;;
16199;SDS011;8207;52.494;4.654;2022-12-17T15:16:38;61.00;;;38.63;;
16199;SDS011;8207;52.494;4.654;2022-12-17T15:19:06;66.00;;;41.13;;
16199;SDS011;8207;52.494;4.654;2022-12-17T15:21:33;71.77;;;42.90;;
16199;SDS011;8207;52.494;4.654;2022-12-17T15:24:01;66.23;;;40.67;;
16199;SDS011;8207;52.494;4.654;2022-12-17T15:26:28;66.27;;;42.00;;
16199;SDS011;8207;52.494;4.654;2022-12-17T15:28:55;57.47;;;39.37;;
16199;SDS011;8207;52.494;4.654;2022-12-17T15:31:22;72.37;;;43.03;;
16199;SDS011;8207;52.494;4.654;2022-12-17T15:33:49;73.20;;;42.43;;
16199;SDS011;8207;52.494;4.654;2022-12-17T15:36:16;74.10;;;44.13;;
16199;SDS011;8207;52.494;4.654;2022-12-17T15:38:42;67.30;;;41.60;;
16199;SDS011;8207;52.494;4.654;2022-12-17T15:41:11;72.33;;;43.77;;
16199;SDS011;8207;52.494;4.654;2022-12-17T15:43:56;69.63;;;41.60;;
16199;SDS011;8207;52.494;4.654;2022-12-17T15:46:23;74.20;;;43.60;;
16199;SDS011;8207;52.494;4.654;2022-12-17T15:48:49;79.10;;;44.47;;
16199;SDS011;8207;52.494;4.654;2022-12-17T15:51:16;78.63;;;45.23;;
16199;SDS011;8207;52.494;4.654;2022-12-17T15:53:45;78.40;;;45.93;;
16199;SDS011;8207;52.494;4.654;2022-12-17T15:56:18;75.90;;;44.67;;
16199;SDS011;8207;52.494;4.654;2022-12-17T15:58:46;84.60;;;46.17;;
16199;SDS011;8207;52.494;4.654;2022-12-17T16:01:15;82.87;;;46.30;;
16199;SDS011;8207;52.494;4.654;2022-12-17T16:03:42;89.83;;;47.90;;
16199;SDS011;8207;52.494;4.654;2022-12-17T16:06:09;88.43;;;45.93;;
16199;SDS011;8207;52.494;4.654;2022-12-17T16:08:37;91.70;;;48.33;;
16199;SDS011;8207;52.494;4.654;2022-12-17T16:11:05;87.10;;;45.77;;
16199;SDS011;8207;52.494;4.654;2022-12-17T16:13:34;80.03;;;44.67;;
16199;SDS011;8207;52.494;4.654;2022-12-17T16:16:02;78.63;;;44.27;;
16199;SDS011;8207;52.494;4.654;2022-12-17T16:18:30;83.43;;;44.50;;
16199;SDS011;8207;52.494;4.654;2022-12-17T16:21:00;78.23;;;42.33;;